Decoded Metar for PAKT (KETCHIKAN in AK, USA) (IATA:KTN) | Meteo·Mobile Aviation Weather
aviador You're here:

PAKT Decoded Metar

KETCHIKAN in AK, USA
Report Time2018-11-19 00:53:00
UTC Time2018-11-19 01:11:12
Flight Rules mvfr MVFR
Wind180° at 07 kt
W.Decomp.*RWY 11: 4.6 kt HW 5.3 kt RCW
W.Rank180° ranks 13
Current wind is above 180° avg. (4.6)
Visibility9999 m
Phenomena:N/A
Clouds:Few 008 Hf
Overcast 023 Hf
Expected CloudBase > 800 ft AGL from Temp-Dew spread
Ceiling2,300 ft
Temp09°C (ISA -6)
Dew Point07°C (87% RH)
AAT5.8°C
QNH1020 hPa
Density Alt-705 ft
Elevation92 ft
Report Wrong Elevation
Raw Report
METAR PAKT 190053Z 18007KT 10SM FEW008 OVC023 09/07 A3012 RMK
SLP200 HARBOR WIND 14014KT T00890072 VIA AUTODIAL=

Extra information for PAKT:More info

Metar Taf Metar & Taf Last 4 Metars F.Rules Stats Wind Profile Meteogram Temp Stats Airport Information Weather charts Add Link Nearby VenuesMetar ALERT Operation Metar Decoded Social comments

AIRNAV info for PAKT